Time;durP1;ratioP1;P1;durP2;ratioP2;P2;SDS_P1;SDS_P2;PMS_P1;PMS_P2;Temp;Humidity;BMP_temperature;BMP_pressure;BME280_temperature;BME280_humidity;BME280_pressure;Samples;Min_cycle;Max_cycle;Signal;HPM_P1;HPM_P2
2022/11/06 00:00:51;;;;;;;;;;;13.60;99.90;;;;;;5005609;28;20004;-72
2022/11/06 00:03:17;;;;;;;;;;;13.60;99.90;;;;;;5004959;28;20000;-72
2022/11/06 00:08:34;;;;;;;;;;;13.60;99.90;;;;;;5006100;28;19921;-71
2022/11/06 00:11:00;;;;;;;;;;;13.60;99.90;;;;;;5001484;28;19967;-71
2022/11/06 00:13:26;;;;;;;;;;;13.30;99.90;;;;;;5002148;28;19977;-71
2022/11/06 00:15:52;;;;;;;;;;;13.60;99.90;;;;;;5006611;28;19945;-70
2022/11/06 00:18:18;;;;;;;;;;;13.60;99.90;;;;;;5003914;28;21603;-70
2022/11/06 00:20:44;;;;;;;;;;;13.60;99.90;;;;;;5004561;28;19935;-68
2022/11/06 00:23:09;;;;;;;;;;;13.60;99.90;;;;;;5021534;28;19913;-70
2022/11/06 00:25:38;;;;;;;;;;;13.60;99.90;;;;;;5023095;28;20016;-71
2022/11/06 00:28:04;;;;;;;;;;;13.60;99.90;;;;;;5025865;28;20007;-70
2022/11/06 00:30:29;;;;;;;;;;;13.60;99.90;;;;;;5026824;28;20083;-71
2022/11/06 00:32:55;;;;;;;;;;;13.70;99.90;;;;;;5026232;28;19933;-71
2022/11/06 00:35:20;;;;;;;;;;;13.60;99.90;;;;;;5025653;28;19939;-71
2022/11/06 00:37:46;;;;;;;;;;;13.60;99.90;;;;;;5025818;28;20020;-71
2022/11/06 00:40:11;;;;;;;;;;;13.70;99.90;;;;;;5025591;28;19983;-71
2022/11/06 00:42:38;;;;;;;;;;;13.70;99.90;;;;;;5024211;28;19921;-69
2022/11/06 00:45:03;;;;;;;;;;;13.70;99.90;;;;;;5024006;28;19921;-70
2022/11/06 00:47:30;;;;;;;;;;;13.70;99.90;;;;;;5027291;28;20022;-70
2022/11/06 00:49:55;;;;;;;;;;;13.70;99.90;;;;;;5025686;28;20037;-71
2022/11/06 00:52:21;;;;;;;;;;;13.70;99.90;;;;;;5024091;28;20021;-71
2022/11/06 00:54:46;;;;;;;;;;;13.70;99.90;;;;;;5026804;28;20028;-71
2022/11/06 00:57:12;;;;;;;;;;;13.70;99.90;;;;;;5022191;28;19928;-71
2022/11/06 00:59:37;;;;;;;;;;;13.60;99.90;;;;;;5022024;28;20325;-71
2022/11/06 01:02:03;;;;;;;;;;;13.70;99.90;;;;;;5024213;28;20432;-70
2022/11/06 01:04:28;;;;;;;;;;;13.70;99.90;;;;;;5026096;28;20431;-71
2022/11/06 01:06:57;;;;;;;;;;;13.70;99.90;;;;;;5026763;28;19964;-71
2022/11/06 01:09:24;;;;;;;;;;;13.70;99.90;;;;;;5020926;28;19928;-71
2022/11/06 01:11:51;;;;;;;;;;;13.70;99.90;;;;;;5022059;28;19917;-71
2022/11/06 01:14:17;;;;;;;;;;;13.70;99.90;;;;;;5025164;28;19917;-71
2022/11/06 01:16:43;;;;;;;;;;;13.70;99.90;;;;;;5027314;28;19917;-70
2022/11/06 01:19:10;;;;;;;;;;;13.70;99.90;;;;;;5024746;28;19913;-71
2022/11/06 01:21:37;;;;;;;;;;;13.70;99.90;;;;;;5025532;28;20377;-70
2022/11/06 01:24:05;;;;;;;;;;;13.70;99.90;;;;;;5024213;28;19995;-72
2022/11/06 01:26:30;;;;;;;;;;;13.70;99.90;;;;;;5023224;28;19914;-70
2022/11/06 01:28:56;;;;;;;;;;;13.70;99.90;;;;;;5019956;28;19935;-69
2022/11/06 01:31:23;;;;;;;;;;;13.70;99.90;;;;;;5023920;28;19921;-69
2022/11/06 01:33:49;;;;;;;;;;;13.70;99.90;;;;;;5026837;28;19918;-69
2022/11/06 01:36:15;;;;;;;;;;;13.70;99.90;;;;;;5024476;28;19913;-70
2022/11/06 01:38:42;;;;;;;;;;;13.70;99.90;;;;;;5026947;28;19959;-70
2022/11/06 01:41:08;;;;;;;;;;;13.80;99.90;;;;;;5024476;28;19920;-70
2022/11/06 01:43:45;;;;;;;;;;;13.80;99.90;;;;;;5026211;28;19925;-70
2022/11/06 01:46:11;;;;;;;;;;;13.80;99.90;;;;;;5025268;28;19928;-70
2022/11/06 01:48:38;;;;;;;;;;;13.80;99.90;;;;;;5026481;28;19996;-70
2022/11/06 01:51:04;;;;;;;;;;;13.80;99.90;;;;;;5023529;28;19972;-70
2022/11/06 01:53:30;;;;;;;;;;;13.80;99.90;;;;;;5026582;28;19929;-70
2022/11/06 01:55:58;;;;;;;;;;;13.80;99.90;;;;;;5024982;28;19917;-69
2022/11/06 01:58:25;;;;;;;;;;;13.80;99.90;;;;;;5023939;28;19920;-70
2022/11/06 02:00:51;;;;;;;;;;;13.80;99.90;;;;;;5025702;28;19920;-71
2022/11/06 02:03:17;;;;;;;;;;;13.80;99.90;;;;;;5022568;28;19913;-71
2022/11/06 02:05:42;;;;;;;;;;;13.70;99.90;;;;;;5027069;28;19924;-72
2022/11/06 02:08:10;;;;;;;;;;;13.70;99.90;;;;;;5025007;28;19979;-72
2022/11/06 02:10:36;;;;;;;;;;;13.70;99.90;;;;;;5026774;28;19917;-71
2022/11/06 02:13:22;;;;;;;;;;;13.70;99.90;;;;;;5022244;28;19936;-71
2022/11/06 02:15:57;;;;;;;;;;;13.70;99.90;;;;;;5023913;28;19913;-70
2022/11/06 02:18:25;;;;;;;;;;;13.70;99.90;;;;;;5023551;28;19917;-70
2022/11/06 02:21:00;;;;;;;;;;;13.70;99.90;;;;;;5026584;28;19920;-69
2022/11/06 02:23:44;;;;;;;;;;;13.70;99.90;;;;;;5022943;28;19913;-70
2022/11/06 02:26:25;;;;;;;;;;;13.70;99.90;;;;;;5023506;28;19966;-66
2022/11/06 02:28:53;;;;;;;;;;;13.70;99.90;;;;;;5025096;28;19917;-72
2022/11/06 02:31:27;;;;;;;;;;;13.80;99.90;;;;;;5023508;28;19928;-72
2022/11/06 02:33:58;;;;;;;;;;;13.80;99.90;;;;;;5025430;28;19929;-72
2022/11/06 02:36:35;;;;;;;;;;;13.80;99.90;;;;;;5027413;28;19913;-71
2022/11/06 02:39:03;;;;;;;;;;;13.80;99.90;;;;;;5028208;28;19913;-71
2022/11/06 02:41:30;;;;;;;;;;;13.80;99.90;;;;;;5027727;28;20410;-71
2022/11/06 02:43:56;;;;;;;;;;;13.80;99.90;;;;;;5028681;28;19925;-71
2022/11/06 02:46:42;;;;;;;;;;;13.80;99.90;;;;;;5028955;28;20032;-69
2022/11/06 02:49:10;;;;;;;;;;;13.80;99.90;;;;;;5026910;28;19913;-70
2022/11/06 02:51:39;;;;;;;;;;;13.80;99.90;;;;;;5029495;28;19951;-70
2022/11/06 02:54:05;;;;;;;;;;;13.80;99.90;;;;;;5028600;28;19921;-69
2022/11/06 02:56:36;;;;;;;;;;;13.80;99.90;;;;;;5025314;28;19998;-70
2022/11/06 02:59:05;;;;;;;;;;;13.80;99.90;;;;;;5027683;28;19913;-69
2022/11/06 03:01:33;;;;;;;;;;;13.80;99.90;;;;;;5025809;28;19913;-68
2022/11/06 03:04:12;;;;;;;;;;;13.90;99.90;;;;;;5028776;28;20003;-72
2022/11/06 03:06:40;;;;;;;;;;;13.90;99.90;;;;;;5029724;28;20015;-73
2022/11/06 03:09:08;;;;;;;;;;;13.90;99.90;;;;;;5027821;28;19966;-71
2022/11/06 03:14:48;;;;;;;;;;;13.80;99.90;;;;;;5028329;28;19930;-71
2022/11/06 03:17:19;;;;;;;;;;;13.80;99.90;;;;;;5027730;28;19913;-72
2022/11/06 03:19:51;;;;;;;;;;;13.80;99.90;;;;;;5029210;28;20468;-73
2022/11/06 03:22:22;;;;;;;;;;;13.80;99.90;;;;;;5026508;28;19928;-73
2022/11/06 03:24:55;;;;;;;;;;;13.80;99.90;;;;;;5028299;28;20357;-73
2022/11/06 03:27:22;;;;;;;;;;;13.80;99.90;;;;;;5025355;28;20378;-72
2022/11/06 03:29:56;;;;;;;;;;;13.80;99.90;;;;;;5028485;28;20007;-72
2022/11/06 03:32:30;;;;;;;;;;;13.80;99.90;;;;;;5028019;28;19925;-73
2022/11/06 03:35:01;;;;;;;;;;;13.80;99.90;;;;;;5028279;28;19921;-72
2022/11/06 03:37:32;;;;;;;;;;;13.90;99.90;;;;;;5029103;28;19932;-73
2022/11/06 03:39:58;;;;;;;;;;;13.90;99.90;;;;;;5028217;28;19963;-74
2022/11/06 03:42:26;;;;;;;;;;;13.90;99.90;;;;;;5026750;28;19914;-73
2022/11/06 03:44:54;;;;;;;;;;;13.80;99.90;;;;;;5028449;28;19928;-67
2022/11/06 03:47:19;;;;;;;;;;;13.80;99.90;;;;;;5024792;28;19914;-69
2022/11/06 03:49:48;;;;;;;;;;;13.80;99.90;;;;;;5028268;28;19916;-72
2022/11/06 03:52:16;;;;;;;;;;;13.80;99.90;;;;;;5027323;28;19968;-73
2022/11/06 03:54:45;;;;;;;;;;;13.80;99.90;;;;;;5027960;28;20011;-74
2022/11/06 03:57:18;;;;;;;;;;;13.80;99.90;;;;;;5027412;28;19914;-72
2022/11/06 03:59:47;;;;;;;;;;;13.80;99.90;;;;;;5029920;28;19951;-75
2022/11/06 04:02:14;;;;;;;;;;;13.80;99.90;;;;;;5026659;28;19913;-74
2022/11/06 04:04:46;;;;;;;;;;;13.80;99.90;;;;;;5023127;28;19921;-74
2022/11/06 04:07:13;;;;;;;;;;;13.80;99.90;;;;;;5026611;28;20052;-73
2022/11/06 04:15:13;;;;;;;;;;;13.90;99.90;;;;;;5025300;28;19920;-72
2022/11/06 04:17:39;;;;;;;;;;;14.00;99.90;;;;;;5023167;28;19921;-71
2022/11/06 04:20:07;;;;;;;;;;;13.90;99.90;;;;;;5028485;28;19917;-71
2022/11/06 04:22:36;;;;;;;;;;;14.00;99.90;;;;;;5030618;28;19980;-71
2022/11/06 04:28:23;;;;;;;;;;;14.00;99.90;;;;;;5029387;28;19920;-70
2022/11/06 04:31:05;;;;;;;;;;;14.00;99.90;;;;;;5027509;28;20332;-69
2022/11/06 04:33:35;;;;;;;;;;;13.90;99.90;;;;;;5029782;28;19924;-68
2022/11/06 04:36:07;;;;;;;;;;;14.00;99.90;;;;;;5031433;28;20261;-70
2022/11/06 04:38:33;;;;;;;;;;;13.60;99.90;;;;;;5028408;28;19916;-70
2022/11/06 04:41:14;;;;;;;;;;;13.90;99.90;;;;;;5028869;28;19935;-73
2022/11/06 04:43:43;;;;;;;;;;;13.90;99.90;;;;;;5034740;23;20020;-67
2022/11/06 04:46:10;;;;;;;;;;;13.90;99.90;;;;;;5027887;28;20384;-67
2022/11/06 04:48:37;;;;;;;;;;;13.90;99.90;;;;;;5029899;28;19913;-68
2022/11/06 04:51:05;;;;;;;;;;;13.90;99.90;;;;;;5027317;28;19913;-70
2022/11/06 04:53:32;;;;;;;;;;;13.90;99.90;;;;;;5029312;28;19921;-72
2022/11/06 04:56:05;;;;;;;;;;;13.90;99.90;;;;;;5029201;28;19969;-68
2022/11/06 04:58:31;;;;;;;;;;;13.90;99.90;;;;;;5024259;28;19913;-73
2022/11/06 05:00:56;;;;;;;;;;;13.90;99.90;;;;;;5027306;28;19959;-72
2022/11/06 05:03:22;;;;;;;;;;;13.90;99.90;;;;;;5025101;28;19917;-70
2022/11/06 05:05:48;;;;;;;;;;;13.90;99.90;;;;;;5025541;28;20460;-71
2022/11/06 05:08:15;;;;;;;;;;;12.60;99.90;;;;;;5028214;28;19913;-73
2022/11/06 05:10:41;;;;;;;;;;;14.60;99.90;;;;;;5028089;28;19920;-71
2022/11/06 05:13:07;;;;;;;;;;;13.90;99.90;;;;;;5025254;28;19925;-69
2022/11/06 05:15:32;;;;;;;;;;;13.90;99.90;;;;;;5025203;28;19920;-72
2022/11/06 05:17:58;;;;;;;;;;;13.80;99.90;;;;;;5022816;28;20356;-74
2022/11/06 05:20:24;;;;;;;;;;;13.80;99.90;;;;;;5019931;28;19914;-74
2022/11/06 05:23:01;;;;;;;;;;;13.80;99.90;;;;;;5026967;28;19914;-73
2022/11/06 05:25:28;;;;;;;;;;;13.80;99.90;;;;;;5025798;28;19917;-70
2022/11/06 05:27:54;;;;;;;;;;;13.80;99.90;;;;;;5029669;28;19920;-69
2022/11/06 05:30:23;;;;;;;;;;;13.80;99.90;;;;;;5027803;28;19913;-69
2022/11/06 05:32:49;;;;;;;;;;;14.60;99.90;;;;;;5030097;28;20455;-70
2022/11/06 05:35:15;;;;;;;;;;;13.80;99.90;;;;;;5028112;28;19944;-69
2022/11/06 05:37:40;;;;;;;;;;;13.70;99.90;;;;;;5024143;28;19917;-68
2022/11/06 05:40:07;;;;;;;;;;;13.80;99.90;;;;;;5027625;28;20265;-68
2022/11/06 05:42:33;;;;;;;;;;;13.80;99.90;;;;;;5026874;28;19917;-67
2022/11/06 05:44:59;;;;;;;;;;;13.80;99.90;;;;;;5019183;28;19920;-70
2022/11/06 05:47:25;;;;;;;;;;;13.80;99.90;;;;;;5027084;28;19920;-69
2022/11/06 05:49:50;;;;;;;;;;;13.80;99.90;;;;;;5028334;28;20000;-68
2022/11/06 05:52:16;;;;;;;;;;;12.70;99.90;;;;;;5012578;28;20361;-68
2022/11/06 05:54:41;;;;;;;;;;;13.70;99.90;;;;;;5028408;28;19920;-68
2022/11/06 05:57:07;;;;;;;;;;;13.80;99.90;;;;;;5026755;28;19913;-67
2022/11/06 05:59:33;;;;;;;;;;;13.80;99.90;;;;;;5028259;28;20318;-67
2022/11/06 06:01:59;;;;;;;;;;;13.80;99.90;;;;;;5023106;28;19913;-67
2022/11/06 06:04:24;;;;;;;;;;;13.80;99.90;;;;;;5024436;28;20361;-67
2022/11/06 06:06:50;;;;;;;;;;;13.80;99.90;;;;;;5028955;28;19914;-67
2022/11/06 06:09:16;;;;;;;;;;;13.80;99.90;;;;;;5026627;28;19971;-68
2022/11/06 06:11:41;;;;;;;;;;;13.90;99.90;;;;;;5031249;28;19979;-68
2022/11/06 06:14:07;;;;;;;;;;;13.80;99.90;;;;;;5027700;28;19917;-69
2022/11/06 06:16:33;;;;;;;;;;;13.90;99.90;;;;;;5032618;28;20050;-69
2022/11/06 06:18:58;;;;;;;;;;;13.90;99.90;;;;;;5031633;28;20287;-68
2022/11/06 06:21:24;;;;;;;;;;;13.90;99.90;;;;;;5029942;28;19913;-69
2022/11/06 06:23:50;;;;;;;;;;;13.80;99.90;;;;;;5030611;28;19913;-70
2022/11/06 06:26:15;;;;;;;;;;;13.80;99.90;;;;;;5030027;28;19913;-67
2022/11/06 06:28:41;;;;;;;;;;;13.90;99.90;;;;;;5031346;28;19913;-67
2022/11/06 06:31:08;;;;;;;;;;;13.80;99.90;;;;;;5026408;28;19922;-68
2022/11/06 06:33:34;;;;;;;;;;;13.80;99.90;;;;;;5019562;28;19929;-69
2022/11/06 06:36:03;;;;;;;;;;;13.80;99.90;;;;;;5027264;28;19967;-69
2022/11/06 06:38:29;;;;;;;;;;;13.80;99.90;;;;;;5031858;28;19913;-70
2022/11/06 06:40:55;;;;;;;;;;;13.80;99.90;;;;;;5031155;28;19936;-69
2022/11/06 06:43:20;;;;;;;;;;;13.80;99.90;;;;;;4956745;28;1926268;-70
2022/11/06 06:45:46;;;;;;;;;;;13.80;99.90;;;;;;5028504;28;19913;-70
2022/11/06 06:48:11;;;;;;;;;;;13.80;99.90;;;;;;5030641;28;19936;-70
2022/11/06 06:50:37;;;;;;;;;;;13.80;99.90;;;;;;5055676;28;19936;-71
2022/11/06 06:53:03;;;;;;;;;;;13.80;99.90;;;;;;5019618;28;19921;-70
2022/11/06 06:55:34;;;;;;;;;;;13.80;99.90;;;;;;5027999;28;20369;-70
2022/11/06 06:58:00;;;;;;;;;;;13.80;99.90;;;;;;5031596;28;19913;-71
2022/11/06 07:00:26;;;;;;;;;;;13.80;99.90;;;;;;5030136;28;19917;-71
2022/11/06 07:02:52;;;;;;;;;;;13.80;99.90;;;;;;5027446;28;19989;-70
2022/11/06 07:05:18;;;;;;;;;;;13.80;99.90;;;;;;5026951;28;19913;-70
2022/11/06 07:07:44;;;;;;;;;;;13.80;99.90;;;;;;5032889;28;20381;-71
2022/11/06 07:10:09;;;;;;;;;;;13.80;99.90;;;;;;5030088;28;19920;-72
2022/11/06 07:12:36;;;;;;;;;;;13.80;99.90;;;;;;5023669;28;19972;-72
2022/11/06 07:15:02;;;;;;;;;;;13.80;99.90;;;;;;5031899;28;19913;-71
2022/11/06 07:17:28;;;;;;;;;;;13.60;99.90;;;;;;5031228;28;19913;-73
2022/11/06 07:19:53;;;;;;;;;;;13.80;99.90;;;;;;5023535;28;20421;-72
2022/11/06 07:22:19;;;;;;;;;;;13.80;99.90;;;;;;5028811;28;19920;-72
2022/11/06 07:24:45;;;;;;;;;;;13.80;99.90;;;;;;5030239;28;19964;-71
2022/11/06 07:27:10;;;;;;;;;;;13.80;99.90;;;;;;5027899;28;19913;-69
2022/11/06 07:29:36;;;;;;;;;;;13.90;99.90;;;;;;5032321;28;19913;-69
2022/11/06 07:32:02;;;;;;;;;;;13.90;99.90;;;;;;5029862;28;19921;-69
2022/11/06 07:34:27;;;;;;;;;;;13.90;99.90;;;;;;5029742;28;19924;-68
2022/11/06 07:36:53;;;;;;;;;;;13.80;99.90;;;;;;5030558;28;20293;-68
2022/11/06 07:39:19;;;;;;;;;;;13.80;99.90;;;;;;5029478;28;19914;-68
2022/11/06 07:41:44;;;;;;;;;;;13.80;99.90;;;;;;5029072;28;19913;-68
2022/11/06 07:44:10;;;;;;;;;;;13.80;99.90;;;;;;5019902;28;20361;-67
2022/11/06 07:46:36;;;;;;;;;;;13.80;99.90;;;;;;5030354;28;19913;-68
2022/11/06 07:49:01;;;;;;;;;;;13.80;99.90;;;;;;5028482;28;20012;-68
2022/11/06 07:51:27;;;;;;;;;;;13.80;99.90;;;;;;5030052;28;20030;-67
2022/11/06 07:53:52;;;;;;;;;;;13.80;99.90;;;;;;5031920;28;20004;-67
2022/11/06 07:56:18;;;;;;;;;;;13.90;99.90;;;;;;5027915;28;20364;-67
2022/11/06 07:58:44;;;;;;;;;;;13.80;99.90;;;;;;5031658;28;20001;-67
2022/11/06 08:01:13;;;;;;;;;;;13.80;99.90;;;;;;5026397;28;20400;-65
2022/11/06 08:03:38;;;;;;;;;;;13.90;99.90;;;;;;5031303;28;19914;-66
2022/11/06 08:06:04;;;;;;;;;;;13.90;99.90;;;;;;5028684;28;19913;-66
2022/11/06 08:08:30;;;;;;;;;;;13.90;99.90;;;;;;5031469;28;19913;-67
2022/11/06 08:11:00;;;;;;;;;;;13.90;99.90;;;;;;5027044;28;19952;-66
2022/11/06 08:13:25;;;;;;;;;;;13.90;99.90;;;;;;5024518;28;19925;-66
2022/11/06 08:15:51;;;;;;;;;;;14.00;99.90;;;;;;5029627;28;19917;-66
2022/11/06 08:18:16;;;;;;;;;;;14.00;99.90;;;;;;5029486;28;19917;-67
2022/11/06 08:20:42;;;;;;;;;;;14.00;99.90;;;;;;5028979;28;20016;-66
2022/11/06 08:23:10;;;;;;;;;;;14.00;99.90;;;;;;5029630;28;19913;-67
2022/11/06 08:25:35;;;;;;;;;;;14.00;99.90;;;;;;5030618;28;19913;-73
2022/11/06 08:28:01;;;;;;;;;;;14.00;99.90;;;;;;5027225;28;19935;-68
2022/11/06 08:30:27;;;;;;;;;;;14.00;99.90;;;;;;5029531;28;19958;-68
2022/11/06 08:32:53;;;;;;;;;;;14.00;99.90;;;;;;5028528;28;20016;-67
2022/11/06 08:35:19;;;;;;;;;;;14.10;99.90;;;;;;5029544;28;19992;-71
2022/11/06 08:37:44;;;;;;;;;;;14.00;99.90;;;;;;5026011;28;19913;-66
2022/11/06 08:40:10;;;;;;;;;;;14.10;99.90;;;;;;5029285;28;19913;-68
2022/11/06 08:42:36;;;;;;;;;;;14.00;99.90;;;;;;5030048;28;19952;-66
2022/11/06 08:45:01;;;;;;;;;;;14.10;99.90;;;;;;5029478;28;19919;-65
2022/11/06 08:47:27;;;;;;;;;;;14.00;99.90;;;;;;5027642;28;19920;-67
2022/11/06 08:49:52;;;;;;;;;;;14.10;99.90;;;;;;5029987;28;19952;-66
2022/11/06 08:52:18;;;;;;;;;;;14.10;99.90;;;;;;5013989;28;19920;-64
2022/11/06 08:54:43;;;;;;;;;;;14.10;99.90;;;;;;5028113;28;19928;-64
2022/11/06 08:57:09;;;;;;;;;;;14.10;99.90;;;;;;5025997;28;19967;-64
2022/11/06 08:59:34;;;;;;;;;;;14.10;99.90;;;;;;5025518;28;19920;-67
2022/11/06 09:02:01;;;;;;;;;;;14.10;99.90;;;;;;5027281;28;20004;-64
2022/11/06 09:04:26;;;;;;;;;;;14.10;99.90;;;;;;5027842;28;19935;-63
2022/11/06 09:06:52;;;;;;;;;;;14.00;99.90;;;;;;5030361;28;20372;-65
2022/11/06 09:09:17;;;;;;;;;;;14.00;99.90;;;;;;5028465;28;20432;-64
2022/11/06 09:11:43;;;;;;;;;;;14.00;99.90;;;;;;5026803;28;19913;-66
2022/11/06 09:14:08;;;;;;;;;;;14.00;99.90;;;;;;5027736;28;19967;-68
2022/11/06 09:16:34;;;;;;;;;;;14.00;99.90;;;;;;5029736;28;20027;-71
2022/11/06 09:18:59;;;;;;;;;;;13.90;99.90;;;;;;5030073;28;20033;-71
2022/11/06 09:21:25;;;;;;;;;;;13.90;99.90;;;;;;5029181;28;20007;-73
2022/11/06 09:23:50;;;;;;;;;;;13.90;99.90;;;;;;5030143;28;19928;-72
2022/11/06 09:26:16;;;;;;;;;;;13.90;99.90;;;;;;5028458;28;19996;-71
2022/11/06 09:28:41;;;;;;;;;;;13.80;99.90;;;;;;5028532;28;19917;-72
2022/11/06 09:31:07;;;;;;;;;;;13.80;99.90;;;;;;5028075;28;19917;-72
2022/11/06 09:33:33;;;;;;;;;;;13.80;99.90;;;;;;5029406;28;20003;-70
2022/11/06 09:36:02;;;;;;;;;;;13.70;99.90;;;;;;5029852;28;19913;-73
2022/11/06 09:38:27;;;;;;;;;;;13.70;99.90;;;;;;5029352;28;20003;-67
2022/11/06 09:40:54;;;;;;;;;;;13.70;99.90;;;;;;5029150;28;20435;-64
2022/11/06 09:43:39;;;;;;;;;;;13.60;99.90;;;;;;4785220;28;20233;-65
2022/11/06 09:49:17;;;;;;;;;;;13.40;99.90;;;;;;5027458;28;19919;-70
2022/11/06 09:51:46;;;;;;;;;;;13.30;99.90;;;;;;5026198;28;20603;-76
2022/11/06 09:54:15;;;;;;;;;;;13.20;99.90;;;;;;5027900;28;20011;-75
2022/11/06 09:56:41;;;;;;;;;;;13.20;99.90;;;;;;5029276;28;19920;-72
2022/11/06 09:59:10;;;;;;;;;;;13.20;99.90;;;;;;5027215;28;19913;-72
2022/11/06 10:01:47;;;;;;;;;;;13.20;99.90;;;;;;5028862;28;20281;-71
2022/11/06 10:04:21;;;;;;;;;;;13.10;99.90;;;;;;5027892;28;19917;-70
2022/11/06 10:06:47;;;;;;;;;;;13.10;99.90;;;;;;5029421;28;20001;-71
2022/11/06 10:09:12;;;;;;;;;;;13.20;99.90;;;;;;5027423;28;20272;-70
2022/11/06 10:11:50;;;;;;;;;;;13.20;99.90;;;;;;5028435;28;19913;-71
2022/11/06 10:14:26;;;;;;;;;;;13.20;99.90;;;;;;5027326;28;19921;-70
2022/11/06 10:16:55;;;;;;;;;;;13.10;99.90;;;;;;5029317;28;19913;-71
2022/11/06 10:19:36;;;;;;;;;;;13.10;99.90;;;;;;5025944;28;19913;-69
2022/11/06 10:22:02;;;;;;;;;;;13.10;99.90;;;;;;5023230;28;20324;-71
2022/11/06 10:24:47;;;;;;;;;;;14.30;99.90;;;;;;5027992;28;20003;-70
2022/11/06 10:27:14;;;;;;;;;;;13.20;99.90;;;;;;5026378;28;19920;-69
2022/11/06 10:29:58;;;;;;;;;;;13.20;99.90;;;;;;5028381;28;20376;-69
2022/11/06 10:32:37;;;;;;;;;;;13.20;99.90;;;;;;5027604;28;19975;-68
2022/11/06 10:35:22;;;;;;;;;;;13.30;99.90;;;;;;5029081;28;19977;-68
2022/11/06 10:38:00;;;;;;;;;;;13.20;99.90;;;;;;5026154;28;19913;-67
2022/11/06 10:40:28;;;;;;;;;;;13.30;99.90;;;;;;5026963;28;19913;-68
2022/11/06 10:43:13;;;;;;;;;;;13.30;99.90;;;;;;5028343;28;20379;-70
2022/11/06 10:45:40;;;;;;;;;;;12.60;99.90;;;;;;5029091;28;19917;-72
2022/11/06 10:48:17;;;;;;;;;;;13.50;99.90;;;;;;5027216;28;19913;-75
2022/11/06 10:50:55;;;;;;;;;;;13.40;99.90;;;;;;5028524;28;19953;-72
2022/11/06 10:53:28;;;;;;;;;;;13.40;99.90;;;;;;5023141;28;19921;-67
2022/11/06 10:55:54;;;;;;;;;;;13.40;99.90;;;;;;5034743;28;20372;-74
2022/11/06 10:58:21;;;;;;;;;;;13.40;99.90;;;;;;5029851;28;19921;-72
2022/11/06 11:00:49;;;;;;;;;;;13.40;99.90;;;;;;5032498;28;20258;-69
2022/11/06 11:03:18;;;;;;;;;;;13.40;99.90;;;;;;5030716;28;20387;-68
2022/11/06 11:05:43;;;;;;;;;;;13.40;99.90;;;;;;5026243;28;20007;-68
2022/11/06 11:08:30;;;;;;;;;;;13.40;99.90;;;;;;5030659;28;20403;-69
2022/11/06 11:11:14;;;;;;;;;;;13.40;99.90;;;;;;5015887;28;19913;-69
2022/11/06 11:13:43;;;;;;;;;;;13.40;99.90;;;;;;5032123;28;19921;-69
2022/11/06 11:16:20;;;;;;;;;;;13.50;99.90;;;;;;5030499;28;19959;-68
2022/11/06 11:18:46;;;;;;;;;;;13.60;99.90;;;;;;5030938;28;20024;-67
2022/11/06 11:21:12;;;;;;;;;;;13.50;99.90;;;;;;5030773;28;19913;-67
2022/11/06 11:23:37;;;;;;;;;;;13.40;99.90;;;;;;5032223;28;20411;-65
2022/11/06 11:26:23;;;;;;;;;;;13.40;99.90;;;;;;5031042;28;19960;-65
2022/11/06 11:28:55;;;;;;;;;;;12.90;99.90;;;;;;5031225;28;20305;-65
2022/11/06 11:31:27;;;;;;;;;;;13.40;99.90;;;;;;5020996;28;19927;-65
2022/11/06 11:33:54;;;;;;;;;;;13.40;99.90;;;;;;5032351;28;19929;-65
2022/11/06 11:36:20;;;;;;;;;;;13.30;99.90;;;;;;5030125;28;19917;-66
2022/11/06 11:38:46;;;;;;;;;;;13.30;99.90;;;;;;5031405;28;19913;-66
2022/11/06 11:41:18;;;;;;;;;;;13.30;99.90;;;;;;5029360;28;19913;-67
2022/11/06 11:43:54;;;;;;;;;;;13.30;99.90;;;;;;5031424;28;20012;-67
2022/11/06 11:46:20;;;;;;;;;;;13.20;99.90;;;;;;5028363;28;19920;-66
2022/11/06 11:48:56;;;;;;;;;;;13.30;99.90;;;;;;5030962;28;20281;-65
2022/11/06 11:51:22;;;;;;;;;;;13.30;99.90;;;;;;5029852;28;19925;-65
2022/11/06 11:53:47;;;;;;;;;;;13.30;99.90;;;;;;5030661;28;19944;-64
2022/11/06 11:56:14;;;;;;;;;;;13.40;99.90;;;;;;5025499;28;20304;-64
2022/11/06 11:58:46;;;;;;;;;;;13.40;99.90;;;;;;5029623;28;19917;-64
2022/11/06 12:01:12;;;;;;;;;;;13.50;99.90;;;;;;5024011;28;19953;-64
2022/11/06 12:03:40;;;;;;;;;;;13.50;99.90;;;;;;5023448;28;19963;-68
2022/11/06 12:06:10;;;;;;;;;;;13.50;99.90;;;;;;5025919;28;19968;-67
2022/11/06 12:08:37;;;;;;;;;;;13.50;99.90;;;;;;5025677;28;19917;-66
2022/11/06 12:11:04;;;;;;;;;;;13.60;99.90;;;;;;5038802;28;19983;-70
2022/11/06 12:13:30;;;;;;;;;;;13.60;99.90;;;;;;5023001;28;19967;-66
2022/11/06 12:16:00;;;;;;;;;;;13.60;99.90;;;;;;5028047;28;19917;-64
2022/11/06 12:18:31;;;;;;;;;;;13.70;99.90;;;;;;5021772;28;19913;-63
2022/11/06 12:21:04;;;;;;;;;;;13.70;99.90;;;;;;5019504;28;19921;-64
2022/11/06 12:23:50;;;;;;;;;;;13.70;99.90;;;;;;5020792;28;19944;-63
2022/11/06 12:26:34;;;;;;;;;;;13.70;99.90;;;;;;5019321;28;20316;-64
2022/11/06 12:29:09;;;;;;;;;;;13.70;99.90;;;;;;5017914;28;20011;-66
2022/11/06 12:31:40;;;;;;;;;;;13.90;99.90;;;;;;5022566;28;20265;-66
2022/11/06 12:34:35;;;;;;;;;;;13.90;99.90;;;;;;5014503;28;19928;-67
2022/11/06 12:37:03;;;;;;;;;;;14.00;99.90;;;;;;5010091;28;19953;-65
2022/11/06 12:39:33;;;;;;;;;;;14.10;99.90;;;;;;5019415;28;19913;-64
2022/11/06 12:42:00;;;;;;;;;;;14.10;99.90;;;;;;5022458;28;20281;-63
2022/11/06 12:44:26;;;;;;;;;;;14.10;99.90;;;;;;5035048;28;19929;-62
2022/11/06 12:47:03;;;;;;;;;;;14.10;99.90;;;;;;5021693;28;19913;-62
2022/11/06 12:49:32;;;;;;;;;;;14.10;99.90;;;;;;5018236;28;19913;-62
2022/11/06 12:52:16;;;;;;;;;;;14.10;99.90;;;;;;5017960;28;19939;-63
2022/11/06 12:54:42;;;;;;;;;;;14.10;99.90;;;;;;5016767;28;19953;-63
2022/11/06 12:57:25;;;;;;;;;;;14.10;99.90;;;;;;5023440;28;19917;-62
2022/11/06 12:59:51;;;;;;;;;;;14.20;99.90;;;;;;5021804;28;19913;-63
2022/11/06 13:02:22;;;;;;;;;;;14.30;99.90;;;;;;5022349;28;19927;-61
2022/11/06 13:05:06;;;;;;;;;;;14.40;99.90;;;;;;5019467;28;19917;-61
2022/11/06 13:07:49;;;;;;;;;;;14.50;99.90;;;;;;5020887;28;19936;-63
2022/11/06 13:10:27;;;;;;;;;;;14.40;99.90;;;;;;5017198;28;19972;-62
2022/11/06 13:12:53;;;;;;;;;;;14.40;99.90;;;;;;5022260;28;20012;-62
2022/11/06 13:18:38;;;;;;;;;;;14.00;99.90;;;;;;5020730;28;19951;-73
2022/11/06 13:21:19;;;;;;;;;;;13.90;99.90;;;;;;5034717;28;20339;-68
2022/11/06 13:23:50;;;;;;;;;;;13.80;99.90;;;;;;5019248;28;19999;-68
2022/11/06 13:26:48;;;;;;;;;;;13.80;99.90;;;;;;5016034;28;19917;-73
2022/11/06 13:29:14;;;;;;;;;;;13.70;99.90;;;;;;4994468;28;19970;-76
2022/11/06 13:31:42;;;;;;;;;;;13.60;99.90;;;;;;5016590;28;19949;-71
2022/11/06 13:34:14;;;;;;;;;;;13.60;99.90;;;;;;5018160;28;19968;-76
2022/11/06 13:36:40;;;;;;;;;;;13.60;99.90;;;;;;5020676;28;19913;-69
2022/11/06 13:39:19;;;;;;;;;;;13.50;99.90;;;;;;5015525;28;20003;-73
2022/11/06 13:41:45;;;;;;;;;;;13.40;99.90;;;;;;5035883;28;20293;-75
2022/11/06 13:44:17;;;;;;;;;;;13.50;99.90;;;;;;5015688;28;20547;-74
2022/11/06 13:46:52;;;;;;;;;;;13.50;99.90;;;;;;5020297;28;20003;-77
2022/11/06 13:49:18;;;;;;;;;;;13.50;99.90;;;;;;5016401;28;19959;-74
2022/11/06 13:51:46;;;;;;;;;;;13.40;99.90;;;;;;5020813;28;19964;-76
2022/11/06 13:54:18;;;;;;;;;;;13.40;99.90;;;;;;5018481;28;19929;-75
2022/11/06 13:56:58;;;;;;;;;;;13.30;99.90;;;;;;5022396;28;20368;-82
2022/11/06 13:59:32;;;;;;;;;;;13.30;99.90;;;;;;5020680;28;20304;-65
2022/11/06 14:02:06;;;;;;;;;;;13.30;99.90;;;;;;5018209;28;19955;-61
2022/11/06 14:04:39;;;;;;;;;;;13.20;99.90;;;;;;5020443;28;19921;-70
2022/11/06 14:07:06;;;;;;;;;;;13.00;99.90;;;;;;5022353;28;19920;-65
2022/11/06 14:09:33;;;;;;;;;;;13.00;99.90;;;;;;5020840;28;19999;-70
2022/11/06 14:12:03;;;;;;;;;;;12.60;99.90;;;;;;5019840;28;19913;-67
2022/11/06 14:14:30;;;;;;;;;;;11.80;99.90;;;;;;5023023;28;19917;-71
2022/11/06 14:17:10;;;;;;;;;;;11.60;99.90;;;;;;5023301;28;19913;-70
2022/11/06 14:19:37;;;;;;;;;;;11.50;99.90;;;;;;5021770;28;19913;-82
2022/11/06 14:22:21;;;;;;;;;;;11.50;99.90;;;;;;5021104;28;19936;-75
2022/11/06 14:24:47;;;;;;;;;;;11.50;99.90;;;;;;5019308;28;20388;-76
2022/11/06 14:27:33;;;;;;;;;;;12.40;99.90;;;;;;5019680;28;19917;-77
2022/11/06 14:30:16;;;;;;;;;;;11.60;99.90;;;;;;5020855;28;20266;-73
2022/11/06 14:32:46;;;;;;;;;;;11.70;99.90;;;;;;5023444;28;19971;-72
2022/11/06 14:35:27;;;;;;;;;;;11.90;99.90;;;;;;5025721;28;19928;-68
2022/11/06 14:38:09;;;;;;;;;;;12.50;99.90;;;;;;5021058;28;20276;-66
2022/11/06 14:40:36;;;;;;;;;;;13.70;99.90;;;;;;5019108;28;19917;-65
2022/11/06 14:43:10;;;;;;;;;;;14.20;99.90;;;;;;5023718;28;19921;-64
2022/11/06 14:45:36;;;;;;;;;;;13.80;99.90;;;;;;5023817;28;19917;-65
2022/11/06 14:48:02;;;;;;;;;;;13.60;99.90;;;;;;5023146;28;19955;-63